Straubville, North Dakota
Current Conditions -  °F | °C
As of 12:15 AM on Wednesday 22 Oct 2014 (Local Time) from KGWR Reporting Station
Clear Clear  
Wind Chill: 55°   Ceiling: Unl
Heat Index: 55°   Visibility: 10mi
Dew Point: 43°   Wind: 14mph
Humidity: 63%   Direction: 140°SE
Pressure: 29.88"   Gusts: NA
Location:  46.0772°N, 97.8609°W
Report Text: KGWR 220515Z AUTO 14012KT 10SM CLR 13/06 A2988 RMK A01 P000
Loading
Personal Weather Stations






























Interactive Weather Map
Tropical Storm Tracking
New forecast layout! Learn more

10-Day Weather Forecast

Advertisements
Track Severe Weather on mobile